Time;durP1;ratioP1;P1;durP2;ratioP2;P2;SDS_P1;SDS_P2;PMS_P1;PMS_P2;Temp;Humidity;BMP_temperature;BMP_pressure;BME280_temperature;BME280_humidity;BME280_pressure;Samples;Min_cycle;Max_cycle;Signal;HPM_P1;HPM_P2
2021/11/05 00:01:04;;;;;;;38.10;26.00;;;;;;;9.94;96.96;99627.95;116747;1200;22963;-66
2021/11/05 00:03:35;;;;;;;36.30;26.60;;;;;;;9.95;96.87;99621.86;116593;1200;137983;-66
2021/11/05 00:06:03;;;;;;;38.50;26.70;;;;;;;9.94;97.10;99617.39;116684;1200;22386;-66
2021/11/05 00:08:31;;;;;;;39.00;26.00;;;;;;;9.95;96.93;99617.30;116609;1200;139618;-66
2021/11/05 00:10:59;;;;;;;37.00;26.60;;;;;;;9.94;97.03;99619.84;116686;1199;22347;-66
2021/11/05 00:13:27;;;;;;;38.80;25.80;;;;;;;9.93;96.86;99616.13;116754;1200;22315;-66
2021/11/05 00:15:56;;;;;;;39.40;25.60;;;;;;;9.92;96.75;99617.32;116583;1199;138555;-67
2021/11/05 00:18:41;;;;;;;34.20;25.60;;;;;;;9.92;97.03;99609.86;116705;1200;22386;-66
2021/11/05 00:21:09;;;;;;;34.60;26.20;;;;;;;9.92;97.02;99600.60;116532;1201;138063;-66
2021/11/05 00:23:37;;;;;;;46.30;25.70;;;;;;;9.92;97.07;99601.91;116660;1201;24229;-66
2021/11/05 00:26:05;;;;;;;34.60;24.80;;;;;;;9.90;97.07;99593.88;116696;1200;23199;-66
2021/11/05 00:28:34;;;;;;;38.40;25.70;;;;;;;9.91;97.07;99587.73;116599;1200;139063;-66
2021/11/05 00:31:02;;;;;;;36.40;26.70;;;;;;;9.92;97.25;99586.23;116701;1200;23074;-66
2021/11/05 00:33:30;;;;;;;36.10;25.80;;;;;;;9.92;97.29;99589.17;116541;1200;138929;-66
2021/11/05 00:35:59;;;;;;;36.10;25.60;;;;;;;9.93;97.32;99596.42;116676;1200;22436;-65
2021/11/05 00:38:27;;;;;;;36.80;26.20;;;;;;;9.93;97.21;99608.46;116570;1200;139328;-66
2021/11/05 00:40:55;;;;;;;42.70;29.70;;;;;;;9.94;97.31;99621.91;116725;1186;23036;-67
2021/11/05 00:43:23;;;;;;;44.80;29.20;;;;;;;9.96;97.35;99625.13;116656;1200;22539;-67
2021/11/05 00:45:52;;;;;;;37.10;26.40;;;;;;;9.96;97.38;99622.52;116619;1200;138875;-66
2021/11/05 00:48:20;;;;;;;42.80;25.90;;;;;;;9.97;97.41;99615.29;116716;1200;22232;-66
2021/11/05 00:50:48;;;;;;;38.40;27.10;;;;;;;9.96;97.37;99611.04;116586;1200;137966;-66
2021/11/05 00:53:16;;;;;;;41.30;26.80;;;;;;;9.99;97.46;99607.70;116753;1200;23036;-66
2021/11/05 00:55:44;;;;;;;39.30;27.70;;;;;;;10.01;97.40;99604.84;116694;1200;22301;-66
2021/11/05 00:58:13;;;;;;;46.40;29.50;;;;;;;10.01;97.54;99608.44;116585;1200;138968;-66
2021/11/05 01:00:41;;;;;;;40.10;28.50;;;;;;;10.05;97.62;99610.06;116725;1200;22324;-66
2021/11/05 01:03:09;;;;;;;37.90;27.90;;;;;;;10.06;97.65;99613.13;116581;1200;139437;-68
2021/11/05 01:05:37;;;;;;;39.60;27.40;;;;;;;10.08;97.80;99609.73;116732;1200;22395;-67
2021/11/05 01:08:06;;;;;;;40.20;28.60;;;;;;;10.09;97.54;99605.51;116732;1194;22327;-66
2021/11/05 01:10:35;;;;;;;38.70;26.80;;;;;;;10.11;97.67;99604.46;116587;1200;137748;-66
2021/11/05 01:13:04;;;;;;;38.80;26.20;;;;;;;10.11;97.75;99600.89;116724;1200;22305;-67
2021/11/05 01:15:33;;;;;;;42.70;26.20;;;;;;;10.14;97.74;99596.63;116595;1200;138325;-66
2021/11/05 01:18:01;;;;;;;39.10;26.20;;;;;;;10.16;97.83;99594.48;116720;1200;23304;-65
2021/11/05 01:20:29;;;;;;;39.70;26.00;;;;;;;10.18;97.91;99590.59;116640;1200;138580;-65
2021/11/05 01:22:58;;;;;;;33.60;25.50;;;;;;;10.20;97.80;99591.02;116610;1200;22283;-65
2021/11/05 01:25:26;;;;;;;34.40;25.00;;;;;;;10.21;97.85;99587.13;116781;1200;23142;-65
2021/11/05 01:27:54;;;;;;;39.30;26.00;;;;;;;10.22;97.97;99583.66;116566;1200;138160;-66
2021/11/05 01:30:23;;;;;;;36.00;25.50;;;;;;;10.24;97.94;99590.20;116777;1200;22265;-66
2021/11/05 01:32:51;;;;;;;36.10;25.20;;;;;;;10.25;97.79;99587.80;116563;1200;138314;-65
2021/11/05 01:35:19;;;;;;;38.70;25.00;;;;;;;10.26;97.89;99585.58;116648;1200;22460;-66
2021/11/05 01:37:48;;;;;;;39.80;27.00;;;;;;;10.28;97.99;99586.86;116685;1200;22418;-65
2021/11/05 01:40:16;;;;;;;39.60;26.70;;;;;;;10.27;98.10;99585.22;114681;1193;138207;-66
2021/11/05 01:42:45;;;;;;;41.00;27.00;;;;;;;10.30;98.07;99586.89;112593;1200;22466;-66
2021/11/05 01:45:13;;;;;;;40.90;26.60;;;;;;;10.33;98.24;99586.27;112613;1193;140390;-66
2021/11/05 01:47:42;;;;;;;42.60;28.50;;;;;;;10.34;98.12;99583.08;116588;1200;22304;-66
2021/11/05 01:50:11;;;;;;;38.50;27.20;;;;;;;10.36;98.05;99578.96;116708;1192;23066;-66
2021/11/05 01:52:40;;;;;;;38.10;26.80;;;;;;;10.37;98.22;99582.14;116591;1200;138866;-66
2021/11/05 01:55:08;;;;;;;37.70;26.70;;;;;;;10.39;98.22;99586.77;116792;1200;22321;-66
2021/11/05 01:57:36;;;;;;;45.30;28.60;;;;;;;10.42;98.28;99591.04;116579;1200;137976;-66
2021/11/05 02:00:07;;;;;;;41.60;28.30;;;;;;;10.44;98.44;99589.00;116642;1200;22308;-66
2021/11/05 02:02:38;;;;;;;39.90;28.20;;;;;;;10.46;98.24;99589.19;116526;1201;138549;-66
2021/11/05 02:05:10;;;;;;;42.70;27.70;;;;;;;10.49;98.39;99589.67;116703;1200;22340;-66
2021/11/05 02:07:43;;;;;;;42.50;26.50;;;;;;;10.49;98.44;99587.33;116720;1200;22311;-66
2021/11/05 02:10:12;;;;;;;45.00;29.30;;;;;;;10.52;98.27;99579.52;116566;1200;137981;-66
2021/11/05 02:12:41;;;;;;;45.50;27.50;;;;;;;10.54;98.46;99579.03;116714;1200;22511;-66
2021/11/05 02:15:09;;;;;;;37.00;26.40;;;;;;;10.56;98.48;99574.96;116559;1200;138900;-66
2021/11/05 02:17:37;;;;;;;43.80;28.70;;;;;;;10.57;98.61;99576.23;116747;1200;23147;-66
2021/11/05 02:20:06;;;;;;;44.30;28.00;;;;;;;10.58;98.56;99577.66;116550;1201;23434;-66
2021/11/05 02:22:34;;;;;;;42.30;27.20;;;;;;;10.60;98.59;99586.46;116552;1200;138023;-66
2021/11/05 02:25:06;;;;;;;40.70;28.80;;;;;;;10.61;98.38;99589.15;116719;1201;22408;-66
2021/11/05 02:27:35;;;;;;;37.50;25.60;;;;;;;10.63;98.51;99589.06;116519;1201;138184;-66
2021/11/05 02:30:05;;;;;;;39.50;26.00;;;;;;;10.65;98.57;99587.01;116622;1201;22361;-66
2021/11/05 02:32:36;;;;;;;44.40;27.40;;;;;;;10.67;98.59;99589.86;116527;1196;139184;-66
2021/11/05 02:37:39;;;;;;;40.50;26.80;;;;;;;10.73;98.65;99591.82;111067;1215;544838;-67
2021/11/05 02:40:08;;;;;;;44.60;28.40;;;;;;;10.72;98.80;99602.15;112105;1203;137710;-67
2021/11/05 02:42:38;;;;;;;43.20;27.60;;;;;;;10.71;98.66;99607.13;116195;1205;22233;-67
2021/11/05 02:45:07;;;;;;;40.40;28.20;;;;;;;10.75;98.74;99605.91;115965;1199;137475;-67
2021/11/05 02:47:35;;;;;;;40.50;27.50;;;;;;;10.76;98.71;99595.18;116153;1204;23179;-67
2021/11/05 02:50:08;;;;;;;39.40;26.70;;;;;;;10.78;98.74;99593.29;116226;1204;23606;-67
2021/11/05 02:52:36;;;;;;;41.20;26.60;;;;;;;10.79;98.58;99592.71;116089;1204;137331;-67
2021/11/05 02:55:05;;;;;;;39.90;27.10;;;;;;;10.81;98.79;99591.64;116714;1201;23072;-68
2021/11/05 02:57:34;;;;;;;37.20;26.80;;;;;;;10.83;98.77;99596.22;116502;1197;137954;-68
2021/11/05 03:00:04;;;;;;;40.60;27.60;;;;;;;10.85;98.92;99596.63;116607;1201;22371;-68
2021/11/05 03:02:33;;;;;;;42.20;28.30;;;;;;;10.87;98.86;99597.73;116563;1201;137823;-67
2021/11/05 03:05:01;;;;;;;38.50;26.30;;;;;;;10.89;98.80;99592.09;116626;1201;22449;-67
2021/11/05 03:07:31;;;;;;;44.70;28.40;;;;;;;10.91;99.00;99592.55;116719;1201;22266;-67
2021/11/05 03:09:58;;;;;;;43.20;28.90;;;;;;;10.92;99.05;99593.39;116472;1201;138097;-67
2021/11/05 03:12:27;;;;;;;42.60;28.20;;;;;;;10.94;98.92;99594.60;116681;1201;23333;-67
2021/11/05 03:14:57;;;;;;;39.30;26.60;;;;;;;10.97;98.97;99587.41;116510;1201;137844;-68
2021/11/05 03:17:25;;;;;;;38.10;24.90;;;;;;;10.98;98.89;99593.37;116648;1201;23472;-68
2021/11/05 03:19:53;;;;;;;43.70;27.50;;;;;;;11.01;98.88;99588.87;116689;1201;22317;-68
2021/11/05 03:22:21;;;;;;;38.50;26.50;;;;;;;11.02;99.00;99582.94;116545;1200;137800;-68
2021/11/05 03:24:49;;;;;;;43.70;26.90;;;;;;;11.05;98.99;99579.14;116631;1201;22258;-68
2021/11/05 03:27:17;;;;;;;43.90;26.50;;;;;;;11.07;99.04;99573.50;116548;1201;137903;-68
2021/11/05 03:29:45;;;;;;;46.90;28.00;;;;;;;11.08;98.99;99565.11;116651;1201;22492;-68
2021/11/05 03:32:13;;;;;;;39.50;26.50;;;;;;;11.10;99.08;99565.52;116674;1201;22305;-67
2021/11/05 03:34:43;;;;;;;39.40;26.80;;;;;;;11.12;99.38;99566.54;116503;1201;138545;-67
2021/11/05 03:37:11;;;;;;;39.90;26.20;;;;;;;11.14;99.24;99569.56;116529;1201;22329;-67
2021/11/05 03:39:39;;;;;;;44.60;26.20;;;;;;;11.17;99.12;99568.33;115512;1201;138278;-66
2021/11/05 03:42:08;;;;;;;38.70;26.30;;;;;;;11.18;99.15;99569.55;112594;1201;25293;-66
2021/11/05 03:44:37;;;;;;;47.60;26.80;;;;;;;11.21;99.22;99577.00;112546;1195;137873;-67
2021/11/05 03:47:09;;;;;;;41.10;26.20;;;;;;;11.22;99.25;99577.17;116641;1201;22359;-68
2021/11/05 03:49:37;;;;;;;42.10;26.60;;;;;;;11.25;99.40;99580.04;116672;1201;22172;-68
2021/11/05 03:52:06;;;;;;;43.80;27.40;;;;;;;11.27;99.45;99577.58;116233;1201;138406;-68
2021/11/05 03:54:34;;;;;;;45.20;28.20;;;;;;;11.29;99.36;99577.21;116610;1197;22353;-68
2021/11/05 03:57:02;;;;;;;43.80;26.10;;;;;;;11.32;99.41;99579.69;116510;1201;138386;-68
2021/11/05 03:59:31;;;;;;;48.60;28.70;;;;;;;11.35;99.47;99580.70;116665;1202;23124;-68
2021/11/05 04:01:59;;;;;;;46.10;27.10;;;;;;;11.37;99.44;99583.77;116604;1202;22291;-68
2021/11/05 04:04:27;;;;;;;43.10;28.50;;;;;;;11.39;99.50;99577.40;116523;1201;137462;-67
2021/11/05 04:06:56;;;;;;;43.80;27.90;;;;;;;11.42;99.62;99581.61;116683;1202;22995;-67
2021/11/05 04:09:24;;;;;;;45.90;28.10;;;;;;;11.43;99.47;99582.98;116405;1202;138212;-67
2021/11/05 04:11:52;;;;;;;42.90;28.50;;;;;;;11.46;99.49;99585.19;116696;1201;22173;-67
2021/11/05 04:14:20;;;;;;;47.80;29.80;;;;;;;11.47;99.56;99585.80;116466;1201;138174;-66
2021/11/05 04:16:48;;;;;;;46.70;29.90;;;;;;;11.49;99.56;99586.86;116689;1201;22316;-67
2021/11/05 04:19:16;;;;;;;40.30;27.30;;;;;;;11.50;99.63;99592.55;116666;1201;22333;-68
2021/11/05 04:21:44;;;;;;;57.20;31.70;;;;;;;11.53;99.41;99595.56;116480;1201;139869;-67
2021/11/05 04:24:12;;;;;;;56.20;36.30;;;;;;;11.54;99.55;99586.78;116685;1202;22812;-68
2021/11/05 04:26:40;;;;;;;62.60;38.90;;;;;;;11.55;99.44;99578.98;116450;1201;138460;-68
2021/11/05 04:29:08;;;;;;;61.00;38.70;;;;;;;11.57;99.50;99571.23;116642;1201;22397;-68
2021/11/05 04:31:37;;;;;;;69.00;39.20;;;;;;;11.57;99.53;99572.44;116627;1196;23457;-67
2021/11/05 04:34:05;;;;;;;62.60;40.70;;;;;;;11.58;99.55;99572.61;116502;1201;138135;-67
2021/11/05 04:36:33;;;;;;;61.40;38.60;;;;;;;11.59;99.56;99575.68;116739;1200;22338;-68
2021/11/05 04:39:03;;;;;;;56.30;32.90;;;;;;;11.60;99.58;99579.67;116575;1200;139938;-68
2021/11/05 04:41:34;;;;;;;53.70;33.40;;;;;;;11.63;99.54;99577.23;116702;1201;23021;-68
2021/11/05 04:44:02;;;;;;;51.30;31.50;;;;;;;11.64;99.43;99577.63;116702;1201;22513;-68
2021/11/05 04:46:31;;;;;;;50.70;30.20;;;;;;;11.65;99.39;99579.55;116555;1193;139109;-68
2021/11/05 04:48:59;;;;;;;50.90;32.00;;;;;;;11.67;99.59;99578.42;116606;1201;22253;-68
2021/11/05 04:51:27;;;;;;;51.90;33.60;;;;;;;11.68;99.59;99572.15;116546;1200;137683;-68
2021/11/05 04:53:55;;;;;;;58.90;34.90;;;;;;;11.68;99.55;99569.36;116752;1197;22655;-68
2021/11/05 04:56:23;;;;;;;55.90;32.50;;;;;;;11.70;99.43;99570.38;116584;1201;138345;-67
2021/11/05 04:58:52;;;;;;;47.50;30.40;;;;;;;11.71;99.54;99577.27;116619;1201;22390;-68
2021/11/05 05:01:20;;;;;;;61.20;33.40;;;;;;;11.71;99.53;99581.05;116689;1200;22103;-68
2021/11/05 05:03:48;;;;;;;56.60;33.00;;;;;;;11.73;99.66;99582.64;116538;1193;137711;-68
2021/11/05 05:06:16;;;;;;;58.00;32.30;;;;;;;11.74;99.63;99581.35;116697;1200;22248;-68
2021/11/05 05:08:45;;;;;;;69.90;35.70;;;;;;;11.77;99.66;99577.08;116568;1200;137852;-68
2021/11/05 05:11:13;;;;;;;60.90;37.00;;;;;;;11.78;99.71;99574.64;116699;1200;22316;-68
2021/11/05 05:13:41;;;;;;;60.40;35.90;;;;;;;11.80;99.68;99579.06;116666;1200;22871;-68
2021/11/05 05:16:10;;;;;;;59.40;34.00;;;;;;;11.81;99.49;99588.69;116564;1200;138731;-68
2021/11/05 05:18:42;;;;;;;52.10;31.50;;;;;;;11.83;99.78;99595.18;116700;1200;22319;-68
2021/11/05 05:21:10;;;;;;;58.60;33.80;;;;;;;11.85;99.70;99582.80;116528;1200;137667;-69
2021/11/05 05:23:39;;;;;;;62.50;35.00;;;;;;;11.86;99.64;99580.17;116717;1201;22223;-68
2021/11/05 05:26:07;;;;;;;58.20;33.60;;;;;;;11.87;99.72;99581.06;116648;1201;22522;-68
2021/11/05 05:28:35;;;;;;;59.20;34.10;;;;;;;11.88;99.60;99579.05;116594;1200;137609;-68
2021/11/05 05:31:07;;;;;;;60.10;34.20;;;;;;;11.89;99.59;99582.38;116658;1200;23040;-68
2021/11/05 05:33:36;;;;;;;56.60;33.50;;;;;;;11.92;99.69;99590.86;116583;1200;137944;-68
2021/11/05 05:36:04;;;;;;;61.50;38.60;;;;;;;11.93;99.74;99581.48;116684;1200;22323;-68
2021/11/05 05:38:33;;;;;;;66.00;42.30;;;;;;;11.95;99.78;99578.55;116606;1200;139514;-68
2021/11/05 05:41:01;;;;;;;109.70;76.90;;;;;;;11.98;99.86;99586.63;116726;1193;23277;-65
2021/11/05 05:43:30;;;;;;;75.80;50.60;;;;;;;12.00;99.77;99596.25;116715;1200;23242;-65
2021/11/05 05:45:58;;;;;;;65.30;35.60;;;;;;;12.02;99.87;99603.09;116607;1200;138275;-65
2021/11/05 05:48:26;;;;;;;58.40;35.40;;;;;;;12.04;99.87;99604.52;116727;1200;22291;-65
2021/11/05 05:50:54;;;;;;;57.70;32.70;;;;;;;12.05;99.79;99607.05;116551;1193;138082;-65
2021/11/05 05:53:22;;;;;;;61.10;33.70;;;;;;;12.08;99.85;99617.61;116657;1200;22504;-65
2021/11/05 05:55:50;;;;;;;55.50;34.40;;;;;;;12.10;99.86;99607.45;116663;1201;22351;-64
2021/11/05 05:58:18;;;;;;;61.90;32.80;;;;;;;12.10;99.90;99603.73;116530;1196;138737;-65
2021/11/05 06:00:47;;;;;;;58.10;33.60;;;;;;;12.12;99.73;99618.05;116678;1200;22346;-64
2021/11/05 06:03:15;;;;;;;54.90;31.80;;;;;;;12.14;99.73;99627.45;116575;1200;139102;-65
2021/11/05 06:05:43;;;;;;;69.50;33.60;;;;;;;12.15;99.88;99625.65;116708;1200;22376;-64
2021/11/05 06:08:12;;;;;;;55.00;32.50;;;;;;;12.15;99.83;99629.16;116769;1200;22463;-65
2021/11/05 06:10:42;;;;;;;58.00;33.60;;;;;;;12.16;99.78;99625.55;116559;1200;138527;-64
2021/11/05 06:13:10;;;;;;;53.50;32.90;;;;;;;12.17;99.77;99627.64;116687;1199;22398;-63
2021/11/05 06:15:38;;;;;;;59.20;32.20;;;;;;;12.18;99.88;99630.54;116565;1200;137853;-63
2021/11/05 06:18:06;;;;;;;67.80;33.30;;;;;;;12.19;99.81;99634.10;116723;1201;22287;-63
2021/11/05 06:20:34;;;;;;;55.70;33.50;;;;;;;12.20;99.95;99633.34;116593;1200;137935;-63
2021/11/05 06:23:03;;;;;;;61.90;34.80;;;;;;;12.22;99.79;99636.41;116631;1201;23072;-63
2021/11/05 06:25:31;;;;;;;52.60;32.50;;;;;;;12.24;99.83;99632.98;116646;1200;23256;-64
2021/11/05 06:28:00;;;;;;;57.40;33.00;;;;;;;12.25;99.85;99622.51;116472;1201;137921;-64
2021/11/05 06:30:28;;;;;;;62.10;33.70;;;;;;;12.27;99.81;99612.66;116664;1200;23148;-64
2021/11/05 06:32:59;;;;;;;57.80;34.20;;;;;;;12.30;99.89;99612.34;116619;1200;139168;-64
2021/11/05 06:35:28;;;;;;;55.10;32.70;;;;;;;12.31;99.77;99617.27;116631;1200;23056;-64
2021/11/05 06:37:56;;;;;;;56.00;33.70;;;;;;;12.35;99.81;99620.35;116716;1201;23062;-64
2021/11/05 06:40:24;;;;;;;60.90;34.30;;;;;;;12.38;99.94;99611.57;116524;1200;138850;-64
2021/11/05 06:42:53;;;;;;;61.70;36.40;;;;;;;12.41;99.88;99616.71;116713;1200;22356;-64
2021/11/05 06:45:21;;;;;;;55.70;35.10;;;;;;;12.44;99.91;99617.75;116595;1200;138739;-64
2021/11/05 06:47:49;;;;;;;53.70;33.20;;;;;;;12.46;99.91;99609.52;116722;1200;22487;-64
2021/11/05 06:50:17;;;;;;;53.80;34.40;;;;;;;12.49;99.96;99611.77;116728;1197;23461;-64
2021/11/05 06:52:45;;;;;;;63.70;34.10;;;;;;;12.52;99.94;99614.41;115621;1200;139437;-64
2021/11/05 06:55:14;;;;;;;63.10;36.30;;;;;;;12.55;99.95;99609.38;116617;1201;23307;-64
2021/11/05 06:57:42;;;;;;;60.00;32.90;;;;;;;12.57;99.92;99606.86;116564;1200;138566;-64
2021/11/05 07:00:11;;;;;;;57.60;33.10;;;;;;;12.60;99.88;99613.27;116727;1200;22357;-64
2021/11/05 07:02:42;;;;;;;61.40;34.80;;;;;;;12.63;99.88;99619.57;116541;1200;138308;-64
2021/11/05 07:05:12;;;;;;;65.30;33.90;;;;;;;12.64;99.70;99620.84;116719;1200;22343;-64
2021/11/05 07:07:41;;;;;;;58.40;33.30;;;;;;;12.67;99.79;99619.81;116690;1200;23008;-64
2021/11/05 07:10:09;;;;;;;56.10;33.20;;;;;;;12.70;99.74;99626.31;116510;1200;139618;-64
2021/11/05 07:12:40;;;;;;;58.20;31.40;;;;;;;12.71;99.64;99634.29;116683;1201;22229;-64
2021/11/05 07:15:13;;;;;;;58.80;33.80;;;;;;;12.73;99.51;99635.94;116565;1200;138868;-64
2021/11/05 07:17:41;;;;;;;61.20;34.50;;;;;;;12.74;99.53;99630.59;116646;1201;22979;-64
2021/11/05 07:20:10;;;;;;;59.80;33.50;;;;;;;12.76;99.41;99631.84;116652;1201;22376;-64
2021/11/05 07:22:38;;;;;;;54.70;31.60;;;;;;;12.77;99.35;99640.77;116542;1193;138576;-64
2021/11/05 07:25:06;;;;;;;52.70;31.80;;;;;;;12.78;99.27;99640.83;116650;1200;22380;-64
2021/11/05 07:27:35;;;;;;;50.30;30.10;;;;;;;12.79;99.12;99635.53;116548;1200;138099;-64
2021/11/05 07:30:06;;;;;;;51.50;30.50;;;;;;;12.80;99.02;99636.95;116640;1201;22399;-63
2021/11/05 07:32:35;;;;;;;58.40;30.40;;;;;;;12.81;98.86;99640.90;116574;1201;139046;-62
2021/11/05 07:35:06;;;;;;;56.80;32.00;;;;;;;12.83;98.83;99641.52;116617;1200;22263;-62
2021/11/05 07:37:34;;;;;;;58.70;32.80;;;;;;;12.84;98.66;99640.08;116630;1201;22276;-62
2021/11/05 07:40:03;;;;;;;51.90;30.60;;;;;;;12.85;98.59;99642.80;116550;1200;138032;-62
2021/11/05 07:42:32;;;;;;;57.10;33.80;;;;;;;12.86;98.53;99643.89;116663;1200;22252;-62
2021/11/05 07:45:00;;;;;;;56.90;31.50;;;;;;;12.88;98.37;99641.88;116596;1201;138451;-62
2021/11/05 07:47:28;;;;;;;55.00;32.10;;;;;;;12.91;98.37;99645.06;116704;1200;22370;-62
2021/11/05 07:49:56;;;;;;;58.10;32.70;;;;;;;12.91;98.29;99640.63;116744;1200;22343;-64
2021/11/05 07:52:25;;;;;;;60.30;33.30;;;;;;;12.94;98.35;99660.08;116581;1200;139213;-64
2021/11/05 07:54:53;;;;;;;59.70;34.40;;;;;;;12.96;98.08;99656.96;116752;1201;23174;-64
2021/11/05 07:57:23;;;;;;;54.70;33.10;;;;;;;12.98;98.13;99651.44;116533;1200;138075;-64
2021/11/05 07:59:52;;;;;;;61.50;33.50;;;;;;;13.00;98.05;99655.19;117003;1199;22317;-64
2021/11/05 08:02:20;;;;;;;57.00;33.10;;;;;;;13.02;97.88;99651.38;117051;1198;22394;-64
2021/11/05 08:04:48;;;;;;;54.10;33.50;;;;;;;13.03;97.74;99652.04;116974;1198;138527;-64
2021/11/05 08:07:20;;;;;;;52.80;32.60;;;;;;;13.05;97.62;99657.35;117020;1197;22403;-64
2021/11/05 08:09:49;;;;;;;49.70;32.50;;;;;;;13.07;97.48;99664.30;116774;1199;138081;-64
2021/11/05 08:12:17;;;;;;;55.10;33.30;;;;;;;13.08;97.32;99670.11;117087;1199;22259;-64
2021/11/05 08:14:45;;;;;;;55.10;34.30;;;;;;;13.10;97.16;99688.27;116970;1193;139181;-64
2021/11/05 08:17:14;;;;;;;56.60;34.90;;;;;;;13.12;97.12;99694.25;116981;1199;23139;-64
2021/11/05 08:19:42;;;;;;;56.50;35.30;;;;;;;13.14;96.94;99695.70;117127;1199;22333;-63
2021/11/05 08:22:10;;;;;;;56.20;33.40;;;;;;;13.15;96.84;99698.20;116821;1199;138146;-64
2021/11/05 08:24:38;;;;;;;55.40;36.10;;;;;;;13.18;96.70;99687.92;117093;1198;22393;-63
2021/11/05 08:27:06;;;;;;;62.90;35.50;;;;;;;13.21;96.62;99693.41;116977;1197;138903;-64
2021/11/05 08:29:35;;;;;;;57.30;33.80;;;;;;;13.23;96.52;99696.27;117109;1198;23150;-64
2021/11/05 08:32:03;;;;;;;54.00;33.70;;;;;;;13.24;96.44;99688.44;117153;1198;22245;-64
2021/11/05 08:34:31;;;;;;;55.80;35.10;;;;;;;13.27;96.18;99683.95;116996;1198;138734;-64
2021/11/05 08:36:59;;;;;;;51.70;32.70;;;;;;;13.29;96.08;99679.02;117158;1197;23060;-64
2021/11/05 08:39:27;;;;;;;58.60;35.40;;;;;;;13.32;95.86;99674.43;117008;1198;138020;-64
2021/11/05 08:41:56;;;;;;;50.10;32.80;;;;;;;13.34;95.85;99669.84;117147;1199;22976;-63
2021/11/05 08:44:24;;;;;;;59.90;36.70;;;;;;;13.36;95.75;99659.23;117198;1197;22324;-63
2021/11/05 08:46:53;;;;;;;52.60;34.10;;;;;;;13.38;95.62;99658.96;117017;1198;138687;-63
2021/11/05 08:49:22;;;;;;;57.30;34.70;;;;;;;13.41;95.45;99652.17;117202;1199;23391;-63
2021/11/05 08:51:51;;;;;;;56.30;36.80;;;;;;;13.45;95.23;99652.92;116938;1199;138128;-63
2021/11/05 08:54:19;;;;;;;51.60;34.90;;;;;;;13.48;95.15;99651.84;117159;1193;22374;-63
2021/11/05 08:56:47;;;;;;;54.00;35.80;;;;;;;13.51;95.08;99652.88;117002;1198;138811;-64
2021/11/05 08:59:16;;;;;;;52.30;33.10;;;;;;;13.54;94.88;99655.23;117192;1198;22334;-63
2021/11/05 09:01:45;;;;;;;57.90;33.50;;;;;;;13.59;94.69;99644.16;117080;1199;22145;-64
2021/11/05 09:04:13;;;;;;;58.60;34.00;;;;;;;13.63;94.58;99642.36;116799;1199;138294;-63
2021/11/05 09:06:41;;;;;;;53.40;33.60;;;;;;;13.67;94.42;99638.15;117164;1199;22116;-63
2021/11/05 09:09:09;;;;;;;52.30;34.80;;;;;;;13.72;94.38;99650.17;116992;1183;138844;-63
2021/11/05 09:11:37;;;;;;;54.80;36.00;;;;;;;13.78;94.32;99663.92;117081;1193;23052;-63
2021/11/05 09:14:06;;;;;;;55.90;37.00;;;;;;;13.85;94.18;99667.27;116996;1199;22302;-63
2021/11/05 09:16:34;;;;;;;57.30;37.10;;;;;;;13.91;94.07;99661.34;116963;1199;138031;-63
2021/11/05 09:19:03;;;;;;;54.60;35.30;;;;;;;13.97;93.84;99663.91;117124;1198;22454;-63
2021/11/05 09:21:32;;;;;;;48.80;33.50;;;;;;;14.03;93.61;99663.66;116913;1199;138364;-62
2021/11/05 09:24:00;;;;;;;59.30;36.80;;;;;;;14.07;93.32;99658.02;117185;1198;22505;-63
2021/11/05 09:26:29;;;;;;;46.80;33.00;;;;;;;14.10;92.95;99646.34;116970;1199;138609;-63
2021/11/05 09:28:57;;;;;;;52.10;33.90;;;;;;;14.13;92.52;99642.77;117120;1199;22253;-63
2021/11/05 09:31:25;;;;;;;50.80;33.50;;;;;;;14.14;92.21;99647.52;117080;1198;22349;-63
2021/11/05 09:33:53;;;;;;;52.10;33.80;;;;;;;14.17;92.05;99654.64;116893;1197;138054;-65
2021/11/05 09:36:21;;;;;;;50.30;34.00;;;;;;;14.20;91.84;99648.34;117081;1197;23147;-64
2021/11/05 09:38:50;;;;;;;46.00;32.40;;;;;;;14.25;91.76;99640.92;116842;1198;138848;-64
2021/11/05 09:41:18;;;;;;;46.20;33.00;;;;;;;14.29;91.49;99638.27;117017;1198;22401;-68
2021/11/05 09:43:46;;;;;;;47.70;33.80;;;;;;;14.32;91.29;99643.58;117143;1198;22131;-68
2021/11/05 09:46:14;;;;;;;49.90;33.00;;;;;;;14.35;90.92;99639.63;116952;1184;138076;-68
2021/11/05 09:48:43;;;;;;;43.90;32.80;;;;;;;14.36;90.56;99633.42;117031;1198;23053;-68
2021/11/05 09:51:12;;;;;;;57.20;32.60;;;;;;;14.39;90.43;99633.15;116920;1197;138193;-68
2021/11/05 09:53:40;;;;;;;51.60;32.40;;;;;;;14.42;90.17;99623.11;117156;1198;22324;-68
2021/11/05 09:56:10;;;;;;;47.40;31.70;;;;;;;14.46;90.12;99605.71;117064;1199;24239;-69
2021/11/05 09:58:38;;;;;;;48.80;32.30;;;;;;;14.50;89.90;99599.95;116774;1199;138474;-69
2021/11/05 10:01:07;;;;;;;47.20;32.40;;;;;;;14.56;89.83;99600.42;117123;1198;22299;-68
2021/11/05 10:03:36;;;;;;;49.10;34.10;;;;;;;14.62;89.67;99608.83;116912;1199;139599;-67
2021/11/05 10:06:09;;;;;;;47.50;33.50;;;;;;;14.68;89.51;99614.62;117032;1199;22285;-68
2021/11/05 10:08:37;;;;;;;45.00;30.30;;;;;;;14.75;89.29;99622.19;116675;1199;144732;-67
2021/11/05 10:11:26;;;;;;;43.40;31.00;;;;;;;14.80;89.15;99617.51;117138;1199;22346;-68
2021/11/05 10:13:55;;;;;;;52.30;31.80;;;;;;;14.87;88.74;99620.48;117036;1198;138455;-68
2021/11/05 10:16:25;;;;;;;46.30;32.00;;;;;;;14.92;88.36;99624.95;117128;1198;23145;-67
2021/11/05 10:18:55;;;;;;;48.00;32.60;;;;;;;14.97;88.15;99624.71;117010;1199;138283;-66
2021/11/05 10:21:24;;;;;;;39.20;27.70;;;;;;;15.01;87.86;99628.67;117022;1199;23262;-67
2021/11/05 10:23:52;;;;;;;42.30;29.80;;;;;;;15.05;87.70;99636.34;117124;1198;23064;-67
2021/11/05 10:26:21;;;;;;;42.60;28.50;;;;;;;15.10;87.31;99640.09;117064;1198;138765;-68
2021/11/05 10:28:50;;;;;;;38.80;26.60;;;;;;;15.12;86.93;99630.20;117003;1192;22339;-68
2021/11/05 10:31:24;;;;;;;40.40;27.20;;;;;;;15.14;86.20;99624.98;116911;1197;138644;-69
2021/11/05 10:33:52;;;;;;;40.10;26.80;;;;;;;15.13;85.92;99616.20;117072;1184;22490;-69
2021/11/05 10:36:22;;;;;;;43.40;27.00;;;;;;;15.12;85.53;99607.64;113764;1193;22771;-69
2021/11/05 10:39:01;;;;;;;41.10;27.00;;;;;;;15.10;85.37;99600.89;116908;1198;138788;-69
2021/11/05 10:41:34;;;;;;;37.10;26.30;;;;;;;15.06;85.06;99592.09;117056;1199;22795;-64
2021/11/05 10:44:13;;;;;;;42.40;27.10;;;;;;;15.03;85.09;99599.52;116923;1198;138738;-64
2021/11/05 10:46:42;;;;;;;38.40;27.20;;;;;;;15.01;84.91;99631.96;116874;1199;22276;-64
2021/11/05 10:49:23;;;;;;;40.40;27.30;;;;;;;14.98;84.91;99609.12;116804;1199;139563;-64
2021/11/05 10:52:13;;;;;;;37.90;26.90;;;;;;;14.97;85.00;99592.55;117044;1198;22315;-64
2021/11/05 10:54:58;;;;;;;38.10;26.80;;;;;;;14.97;84.95;99580.80;116798;1199;138227;-64
2021/11/05 10:57:39;;;;;;;34.30;24.60;;;;;;;14.98;85.20;99584.80;117057;1198;22315;-64
2021/11/05 11:00:32;;;;;;;39.40;26.00;;;;;;;15.01;85.41;99599.09;117026;1198;22318;-64
2021/11/05 11:03:20;;;;;;;37.60;25.70;;;;;;;15.03;85.45;99606.10;116926;1198;137906;-64
2021/11/05 11:05:49;;;;;;;38.50;25.90;;;;;;;15.09;85.39;99615.17;117157;1199;22272;-64
2021/11/05 11:08:19;;;;;;;34.70;24.20;;;;;;;15.12;85.15;99608.73;117014;1199;138064;-64
2021/11/05 11:10:49;;;;;;;36.60;25.10;;;;;;;15.14;85.04;99603.52;117117;1194;22312;-64
2021/11/05 11:13:38;;;;;;;40.30;25.10;;;;;;;15.16;84.85;99608.47;117077;1199;138749;-64
2021/11/05 11:16:09;;;;;;;33.80;25.10;;;;;;;15.17;84.68;99616.48;116869;1200;22485;-64
2021/11/05 11:18:47;;;;;;;42.10;26.60;;;;;;;15.18;84.44;99613.02;117117;1199;22239;-64